Time;durP1;ratioP1;P1;durP2;ratioP2;P2;SDS_P1;SDS_P2;PMS_P1;PMS_P2;Temp;Humidity;BMP_temperature;BMP_pressure;BME280_temperature;BME280_humidity;BME280_pressure;Samples;Min_cycle;Max_cycle;Signal;HPM_P1;HPM_P2
2021/12/05 00:24:08;;;;;;;11.87;9.07;;;;;;;0.20;86.41;96268.28;6370027;27;20185;-69
2021/12/05 00:27:18;;;;;;;13.80;10.07;;;;;;;0.22;86.46;96268.19;6370091;27;20699;-68
2021/12/05 00:33:57;;;;;;;18.17;11.23;;;;;;;0.18;86.22;96257.19;6369810;27;20199;-68
2021/12/05 01:13:46;;;;;;;16.23;11.20;;;;;;;0.23;87.14;96246.50;6289428;28;20234;-68
2021/12/05 01:16:48;;;;;;;14.00;10.70;;;;;;;0.25;86.75;96249.84;6286817;27;20204;-68
2021/12/05 01:19:51;;;;;;;13.83;9.97;;;;;;;0.26;87.01;96251.53;6350497;28;20590;-69
2021/12/05 01:23:07;;;;;;;13.70;10.57;;;;;;;0.26;86.52;96239.38;6350349;27;20689;-68
2021/12/05 01:27:00;;;;;;;14.70;10.63;;;;;;;0.27;87.22;96235.88;6350712;28;20188;-68
2021/12/05 01:33:11;;;;;;;16.83;11.90;;;;;;;0.26;87.08;96239.38;6350350;28;20197;-68
2021/12/05 01:46:52;;;;;;;14.47;10.40;;;;;;;0.28;86.90;96228.91;6288437;28;20335;-69
2021/12/05 02:36:24;;;;;;;13.83;10.60;;;;;;;0.31;87.48;96239.91;6276965;28;20563;-70
2021/12/05 02:39:31;;;;;;;16.20;12.50;;;;;;;0.31;87.47;96245.09;6300934;28;20585;-69
2021/12/05 02:42:39;;;;;;;19.30;13.70;;;;;;;0.31;87.67;96241.66;6263405;28;20195;-69
2021/12/05 02:45:47;;;;;;;17.83;12.77;;;;;;;0.31;87.27;96241.66;6293709;28;20280;-68
2021/12/05 02:48:51;;;;;;;16.83;12.70;;;;;;;0.31;87.18;96245.09;6313371;27;20204;-70
2021/12/05 02:52:00;;;;;;;18.70;14.50;;;;;;;0.30;87.19;96255.59;6353940;27;20204;-68
2021/12/05 02:55:10;;;;;;;17.63;13.77;;;;;;;0.31;87.53;96259.84;6337182;27;20189;-69
2021/12/05 02:58:25;;;;;;;16.50;12.57;;;;;;;0.30;87.24;96255.59;6354234;27;20212;-69
2021/12/05 03:04:36;;;;;;;19.13;14.47;;;;;;;0.31;87.43;96255.47;6353604;27;20193;-69
2021/12/05 03:07:41;;;;;;;18.27;14.10;;;;;;;0.32;87.44;96258.91;6343955;27;20192;-70
2021/12/05 03:10:45;;;;;;;17.87;13.20;;;;;;;0.32;87.78;96262.34;6379015;27;20542;-71
2021/12/05 03:13:47;;;;;;;18.03;13.73;;;;;;;0.34;87.87;96272.63;6353606;27;20228;-69
2021/12/05 03:16:49;;;;;;;20.63;14.60;;;;;;;0.33;87.46;96274.38;6353061;27;20211;-70
2021/12/05 03:19:51;;;;;;;18.63;14.03;;;;;;;0.35;87.74;96274.28;6353166;27;20241;-69
2021/12/05 03:22:54;;;;;;;19.20;13.90;;;;;;;0.35;87.51;96279.47;6353294;27;20671;-70
2021/12/05 03:25:56;;;;;;;17.27;13.43;;;;;;;0.35;87.21;96269.09;6353091;27;20203;-70
2021/12/05 03:28:59;;;;;;;19.30;13.53;;;;;;;0.36;87.82;96263.81;6371803;27;20192;-69
2021/12/05 03:32:02;;;;;;;17.90;13.50;;;;;;;0.38;87.86;96270.69;6335636;27;20588;-70
2021/12/05 03:35:07;;;;;;;17.97;13.07;;;;;;;0.41;87.88;96273.91;6371343;27;20697;-69
2021/12/05 03:38:13;;;;;;;14.47;12.17;;;;;;;0.41;87.56;96279.09;6383659;27;20279;-68
2021/12/05 03:41:17;;;;;;;15.53;11.87;;;;;;;0.41;87.89;96278.25;6362708;27;20669;-69
2021/12/05 03:44:24;;;;;;;19.07;13.33;;;;;;;0.40;87.52;96276.63;6352777;27;20679;-69
2021/12/05 03:47:28;;;;;;;21.33;13.77;;;;;;;0.39;88.08;96287.91;6352486;27;20575;-69
2021/12/05 03:50:32;;;;;;;18.77;13.93;;;;;;;0.39;88.01;96288.75;6353293;27;20205;-69
2021/12/05 03:53:35;;;;;;;17.30;12.70;;;;;;;0.41;87.77;96288.63;6352123;27;20549;-69
2021/12/05 03:56:41;;;;;;;14.97;11.73;;;;;;;0.43;87.63;96294.56;6352613;27;20200;-69
2021/12/05 03:59:46;;;;;;;17.73;13.23;;;;;;;0.42;87.61;96293.72;6371090;27;20269;-70
2021/12/05 04:02:51;;;;;;;15.70;12.30;;;;;;;0.42;87.76;96295.50;6370514;27;20177;-69
2021/12/05 04:06:00;;;;;;;18.33;13.63;;;;;;;0.41;87.66;96299.84;6351955;27;20196;-69
2021/12/05 04:09:09;;;;;;;18.80;13.93;;;;;;;0.39;88.09;96287.91;6354728;27;20192;-70
2021/12/05 04:12:14;;;;;;;19.13;14.67;;;;;;;0.34;88.22;96283.84;6351799;27;20395;-70
2021/12/05 04:15:17;;;;;;;18.50;15.07;;;;;;;0.31;88.08;96290.97;6370499;27;20191;-68
2021/12/05 04:18:22;;;;;;;20.00;14.97;;;;;;;0.31;88.52;96303.94;6351398;27;20245;-70
2021/12/05 04:21:25;;;;;;;18.77;15.10;;;;;;;0.30;87.94;96299.72;6350650;27;20230;-70
2021/12/05 04:24:29;;;;;;;19.40;14.97;;;;;;;0.27;88.24;96292.94;6370390;27;20242;-70
2021/12/05 04:27:31;;;;;;;20.80;15.63;;;;;;;0.28;88.08;96293.78;6369978;27;20680;-69
2021/12/05 04:30:34;;;;;;;19.43;14.73;;;;;;;0.28;88.32;96292.00;6369859;27;20212;-70
2021/12/05 04:33:37;;;;;;;21.53;15.10;;;;;;;0.30;88.27;96291.94;6331367;28;20468;-69
2021/12/05 04:36:41;;;;;;;17.33;13.40;;;;;;;0.31;88.67;96302.19;6342920;27;20188;-69
2021/12/05 04:39:43;;;;;;;18.30;13.03;;;;;;;0.36;88.15;96305.34;6380771;27;20195;-70
2021/12/05 04:42:46;;;;;;;21.07;15.17;;;;;;;0.38;88.31;96302.66;6369642;27;20184;-73
2021/12/05 04:45:50;;;;;;;20.87;14.60;;;;;;;0.45;88.36;96300.50;6351051;27;20188;-69
2021/12/05 04:48:55;;;;;;;18.30;13.13;;;;;;;0.51;88.81;96313.91;6351117;27;20204;-70
2021/12/05 04:52:01;;;;;;;17.03;12.43;;;;;;;0.75;89.64;96316.75;6350911;27;20216;-68
2021/12/05 04:55:05;;;;;;;16.80;11.70;;;;;;;0.94;89.48;96317.25;6351071;27;20279;-69
2021/12/05 04:58:07;;;;;;;15.10;11.13;;;;;;;1.07;89.36;96331.13;6350834;27;20255;-70
2021/12/05 05:01:09;;;;;;;13.50;10.30;;;;;;;1.18;89.33;96320.03;6350795;27;20189;-69
2021/12/05 05:04:26;;;;;;;10.97;8.57;;;;;;;1.33;89.60;96329.41;6369340;27;20404;-69
2021/12/05 05:07:28;;;;;;;11.37;8.27;;;;;;;1.53;89.93;96327.28;6374461;27;20280;-68
2021/12/05 05:10:32;;;;;;;10.40;9.00;;;;;;;2.13;90.70;96324.94;6383132;27;20710;-68
2021/12/05 05:13:35;;;;;;;8.53;7.47;;;;;;;2.26;90.50;96324.91;6368630;27;20220;-69
2021/12/05 05:16:37;;;;;;;7.93;6.90;;;;;;;2.26;90.15;96340.53;6351418;27;20273;-69
2021/12/05 05:19:48;;;;;;;7.47;6.67;;;;;;;2.28;90.51;96347.31;6368886;27;20200;-68
2021/12/05 05:48:56;;;;;;;5.37;4.20;;;;;;;2.54;89.58;96428.81;6368685;28;20710;-70
2021/12/05 05:51:59;;;;;;;5.37;3.60;;;;;;;2.51;89.30;96426.41;6350263;28;20209;-70
2021/12/05 05:55:01;;;;;;;3.70;3.00;;;;;;;2.45;88.62;96421.66;6368738;28;20205;-68
2021/12/05 05:58:26;;;;;;;2.33;2.13;;;;;;;2.37;88.67;96416.13;6368115;28;20196;-68
2021/12/05 06:01:56;;;;;;;2.47;2.10;;;;;;;2.33;87.83;96425.91;6333335;28;20189;-68
2021/12/05 06:04:54;;;;;;;2.30;2.10;;;;;;;2.27;87.80;96415.91;6368700;28;20242;-68
2021/12/05 06:07:56;;;;;;;2.03;1.93;;;;;;;2.20;87.87;96405.06;6358262;27;20188;-69
2021/12/05 06:11:04;;;;;;;2.10;1.90;;;;;;;2.14;88.05;96394.25;6368480;28;20737;-68
2021/12/05 06:14:06;;;;;;;2.17;1.97;;;;;;;2.11;87.59;96410.06;6350076;28;20301;-69
2021/12/05 06:17:08;;;;;;;1.83;1.73;;;;;;;2.07;88.02;96406.00;6349884;28;20197;-71
2021/12/05 06:20:17;;;;;;;1.90;1.70;;;;;;;2.02;87.93;96401.09;6367946;28;20200;-69
2021/12/05 06:23:20;;;;;;;1.90;1.70;;;;;;;1.97;88.22;96391.97;6368093;28;20185;-69
2021/12/05 06:26:23;;;;;;;1.83;1.73;;;;;;;1.92;88.27;96386.22;6349886;28;20196;-69
2021/12/05 06:29:29;;;;;;;1.60;1.50;;;;;;;1.92;87.90;96410.47;6367762;28;20679;-69
2021/12/05 06:39:27;;;;;;;1.13;1.07;;;;;;;1.71;88.04;96448.28;6384738;27;20237;-69
2021/12/05 06:48:54;;;;;;;0.97;0.97;;;;;;;1.75;88.42;96452.34;6372664;27;20631;-68
2021/12/05 06:51:57;;;;;;;1.37;0.97;;;;;;;1.74;88.74;96446.31;6371678;27;20208;-69
2021/12/05 06:54:59;;;;;;;1.20;1.10;;;;;;;1.80;87.98;96458.06;6372015;27;20196;-68
2021/12/05 06:58:01;;;;;;;0.80;0.80;;;;;;;1.82;88.09;96461.41;6371921;27;20199;-69
2021/12/05 07:01:07;;;;;;;0.97;0.87;;;;;;;1.81;87.72;96463.19;6353296;27;20667;-69
2021/12/05 07:04:29;;;;;;;1.00;0.90;;;;;;;1.86;87.35;96486.31;6354056;27;20567;-68
2021/12/05 07:07:38;;;;;;;0.80;0.70;;;;;;;1.93;87.62;96497.13;6359209;27;20786;-69
2021/12/05 07:10:50;;;;;;;1.30;1.20;;;;;;;2.00;87.19;96498.41;6390443;27;20672;-70
2021/12/05 07:14:31;;;;;;;1.00;0.90;;;;;;;2.11;86.80;96506.34;6353071;27;20602;-68
2021/12/05 07:20:46;;;;;;;1.70;0.87;;;;;;;2.33;85.13;96484.94;6371481;27;20652;-71
2021/12/05 07:24:51;;;;;;;0.90;0.90;;;;;;;2.41;84.51;96495.66;6371485;27;20249;-70
2021/12/05 07:40:42;;;;;;;1.23;1.10;;;;;;;2.39;84.09;96511.44;6356130;27;20185;-69
2021/12/05 07:43:45;;;;;;;1.50;1.40;;;;;;;2.37;84.32;96521.09;6344274;28;20338;-68
2021/12/05 07:46:47;;;;;;;1.30;1.20;;;;;;;2.38;84.10;96512.34;6365799;27;20247;-69
2021/12/05 07:49:50;;;;;;;2.03;1.93;;;;;;;2.36;83.20;96510.78;6352401;27;20225;-69
2021/12/05 07:52:58;;;;;;;1.67;1.57;;;;;;;2.41;83.59;96516.50;6351887;27;20208;-69
2021/12/05 07:56:12;;;;;;;2.23;1.60;;;;;;;2.45;83.52;96515.38;6352832;27;20209;-69
2021/12/05 07:59:32;;;;;;;1.77;1.67;;;;;;;2.42;83.09;96498.19;6370454;27;20217;-71
2021/12/05 08:16:10;;;;;;;2.70;1.37;;;;;;;2.56;83.87;96508.50;6370765;27;20196;-69
2021/12/05 08:19:18;;;;;;;1.83;1.37;;;;;;;2.62;83.81;96520.28;6351517;27;20189;-69
2021/12/05 08:22:20;;;;;;;1.40;1.30;;;;;;;2.71;83.39;96514.44;6369293;27;20191;-69
2021/12/05 08:25:30;;;;;;;1.50;1.40;;;;;;;2.76;83.83;96507.16;6370145;27;20621;-69
2021/12/05 09:51:39;;;;;;;1.77;1.67;;;;;;;2.65;82.88;96585.19;6349314;28;20700;-68
2021/12/05 10:01:59;;;;;;;2.40;1.70;;;;;;;2.50;83.06;96563.59;6367734;28;20651;-68
2021/12/05 10:12:19;;;;;;;1.40;1.30;;;;;;;2.35;83.22;96584.59;6375313;27;20205;-69
2021/12/05 10:36:25;;;;;;;1.60;1.20;;;;;;;1.99;83.93;96567.84;6304602;27;20217;-69
2021/12/05 10:39:27;;;;;;;1.73;1.10;;;;;;;1.97;84.14;96555.84;6372625;27;20678;-68
2021/12/05 10:42:48;;;;;;;0.90;0.90;;;;;;;1.91;84.48;96557.06;6364887;27;20180;-69
2021/12/05 10:45:54;;;;;;;1.10;1.00;;;;;;;1.79;84.46;96556.09;6372588;27;20196;-70
2021/12/05 10:49:04;;;;;;;1.70;1.10;;;;;;;1.83;84.62;96551.53;6372268;27;20184;-69
2021/12/05 10:52:13;;;;;;;2.57;1.37;;;;;;;1.81;84.48;96558.59;6372637;27;20281;-69
2021/12/05 10:55:30;;;;;;;1.93;1.20;;;;;;;1.79;84.40;96550.06;6372252;27;20192;-68
2021/12/05 10:58:57;;;;;;;1.47;1.00;;;;;;;1.89;84.42;96545.13;6353927;27;20287;-69
2021/12/05 11:02:30;;;;;;;2.03;1.10;;;;;;;1.91;84.43;96544.06;6371813;27;20321;-68
2021/12/05 11:05:35;;;;;;;1.00;1.00;;;;;;;1.91;84.34;96544.06;6369122;27;20283;-68
2021/12/05 11:08:38;;;;;;;1.17;0.63;;;;;;;1.91;83.84;96532.81;6381292;27;20193;-69
2021/12/05 11:11:44;;;;;;;0.70;0.70;;;;;;;1.91;84.09;96533.66;6371389;27;20237;-68
2021/12/05 11:14:53;;;;;;;0.60;0.60;;;;;;;1.96;84.19;96549.81;6320692;28;20638;-69
2021/12/05 11:17:56;;;;;;;1.70;0.80;;;;;;;2.07;84.41;96547.38;6319512;28;20183;-68
2021/12/05 11:20:58;;;;;;;1.20;1.00;;;;;;;2.14;84.06;96546.03;6319571;28;20198;-69
2021/12/05 11:24:08;;;;;;;1.83;1.07;;;;;;;2.15;83.88;96539.88;6320483;28;20202;-68
2021/12/05 11:27:14;;;;;;;2.17;0.80;;;;;;;2.19;83.58;96536.16;6321054;28;20790;-70
2021/12/05 11:30:32;;;;;;;2.20;1.40;;;;;;;2.25;83.62;96536.69;6318519;28;20239;-69
2021/12/05 11:33:43;;;;;;;2.23;1.10;;;;;;;2.29;83.82;96530.34;6318671;28;20206;-69
2021/12/05 11:36:45;;;;;;;1.00;0.90;;;;;;;2.35;83.53;96520.34;6319418;28;20209;-68
2021/12/05 11:39:48;;;;;;;0.90;0.80;;;;;;;2.44;83.80;96521.50;6334460;28;20668;-69
2021/12/05 11:43:01;;;;;;;4.17;1.20;;;;;;;2.47;83.21;96526.53;6315693;28;20718;-70
2021/12/05 11:46:31;;;;;;;1.87;1.00;;;;;;;2.53;83.44;96515.69;6295611;28;20182;-70
2021/12/05 11:49:34;;;;;;;4.90;1.30;;;;;;;2.63;83.59;96519.34;6293162;28;20210;-70
2021/12/05 11:52:40;;;;;;;5.07;1.30;;;;;;;2.66;83.23;96515.72;6295150;28;20281;-69
2021/12/05 11:55:42;;;;;;;4.83;1.00;;;;;;;2.66;83.34;96518.31;6293194;28;20187;-69
2021/12/05 11:58:59;;;;;;;3.43;1.10;;;;;;;2.64;83.13;96526.22;6293622;28;20267;-69
2021/12/05 12:02:20;;;;;;;3.40;0.90;;;;;;;2.52;82.39;96535.69;6294519;28;20192;-71
2021/12/05 12:05:27;;;;;;;2.07;1.00;;;;;;;2.49;82.74;96535.91;6294420;28;20253;-69
2021/12/05 12:08:30;;;;;;;1.63;0.90;;;;;;;2.48;81.74;96534.25;6308921;28;20281;-68
2021/12/05 12:11:34;;;;;;;2.67;1.37;;;;;;;2.49;81.61;96532.47;6318974;28;20697;-69
2021/12/05 12:14:37;;;;;;;2.80;0.90;;;;;;;2.48;81.28;96526.44;6342232;28;20228;-68
2021/12/05 12:17:39;;;;;;;3.27;0.73;;;;;;;2.43;80.82;96533.69;6343276;28;20201;-69
2021/12/05 12:20:45;;;;;;;3.37;1.00;;;;;;;2.42;81.26;96533.78;6344344;28;20215;-70
2021/12/05 12:23:51;;;;;;;1.17;0.70;;;;;;;2.44;80.56;96531.94;6343287;28;20587;-69
2021/12/05 12:26:53;;;;;;;2.63;0.70;;;;;;;2.50;80.60;96523.69;6343251;28;20226;-70
2021/12/05 12:30:02;;;;;;;2.37;0.97;;;;;;;2.58;81.16;96519.66;6344093;28;20265;-69
2021/12/05 12:33:09;;;;;;;0.90;0.60;;;;;;;2.63;80.85;96513.31;6342645;28;20194;-70
2021/12/05 12:36:12;;;;;;;0.80;0.67;;;;;;;2.65;80.75;96514.03;6342874;28;20359;-69
2021/12/05 12:39:17;;;;;;;2.83;1.07;;;;;;;2.64;80.44;96513.19;6342740;28;20353;-69
2021/12/05 12:42:23;;;;;;;3.03;0.87;;;;;;;2.64;80.52;96513.19;6330978;28;20195;-68
2021/12/05 12:45:25;;;;;;;2.10;0.80;;;;;;;2.59;80.10;96510.94;6318663;28;20282;-69
2021/12/05 12:48:28;;;;;;;1.00;0.60;;;;;;;2.59;80.02;96518.75;6318889;28;20378;-69
2021/12/05 12:51:35;;;;;;;1.33;0.80;;;;;;;2.54;79.54;96525.16;6317539;28;20197;-70
2021/12/05 12:54:42;;;;;;;1.37;0.67;;;;;;;2.49;79.99;96527.25;6318387;28;20194;-69
2021/12/05 12:57:44;;;;;;;1.13;0.60;;;;;;;2.45;79.66;96529.22;6318670;28;20250;-69
2021/12/05 13:00:47;;;;;;;2.07;0.63;;;;;;;2.48;79.56;96523.81;6318235;28;20197;-70
2021/12/05 13:11:21;;;;;;;1.73;0.63;;;;;;;2.41;80.27;96514.72;6343125;28;20233;-69
2021/12/05 13:14:23;;;;;;;2.10;0.73;;;;;;;2.35;80.38;96509.94;6357974;27;20225;-68
2021/12/05 13:17:43;;;;;;;1.87;0.80;;;;;;;2.30;81.04;96513.78;6350753;27;20500;-69
2021/12/05 13:21:02;;;;;;;2.43;0.80;;;;;;;2.28;80.89;96500.06;6350694;27;20189;-69
2021/12/05 13:24:31;;;;;;;1.90;0.60;;;;;;;2.29;80.48;96496.50;6368702;27;20749;-70
2021/12/05 13:27:36;;;;;;;3.63;1.30;;;;;;;2.30;80.84;96492.94;6368606;27;20189;-69
2021/12/05 13:30:40;;;;;;;2.17;1.10;;;;;;;2.26;80.73;96491.50;6368697;27;20214;-68
2021/12/05 13:33:42;;;;;;;2.20;0.90;;;;;;;2.28;81.28;96474.03;6368393;28;20216;-69
2021/12/05 13:36:58;;;;;;;2.63;1.30;;;;;;;2.26;80.68;96466.31;6350691;28;20250;-69
2021/12/05 13:40:22;;;;;;;2.83;1.50;;;;;;;2.28;80.88;96472.25;6328693;28;20278;-69
2021/12/05 13:43:29;;;;;;;1.43;1.10;;;;;;;2.28;81.01;96505.25;6368428;28;20615;-70
2021/12/05 13:46:38;;;;;;;2.20;1.10;;;;;;;2.28;80.98;96513.06;6368853;28;20691;-71
2021/12/05 13:49:41;;;;;;;2.87;1.07;;;;;;;2.23;81.38;96497.75;6368261;28;20261;-68
2021/12/05 13:52:59;;;;;;;2.67;0.93;;;;;;;2.22;81.35;96490.84;6369580;27;20204;-68
2021/12/05 13:56:08;;;;;;;1.87;0.90;;;;;;;2.14;81.19;96511.34;6354865;27;20237;-69
2021/12/05 13:59:11;;;;;;;1.17;0.90;;;;;;;2.09;81.34;96529.06;6338324;27;20270;-68
2021/12/05 14:02:14;;;;;;;2.27;1.10;;;;;;;2.06;81.79;96531.84;6373302;27;20645;-69
2021/12/05 14:05:27;;;;;;;3.10;1.43;;;;;;;2.03;82.00;96540.69;6373115;27;20189;-68
2021/12/05 14:08:29;;;;;;;1.40;1.10;;;;;;;2.05;81.69;96536.22;6377260;27;20181;-69
2021/12/05 14:11:33;;;;;;;1.20;0.90;;;;;;;2.05;82.33;96535.38;6373667;27;20404;-71
2021/12/05 14:14:38;;;;;;;1.30;1.10;;;;;;;2.05;82.30;96533.59;6373080;27;20464;-68
2021/12/05 14:17:44;;;;;;;1.63;1.27;;;;;;;2.00;82.46;96520.03;6372831;27;20265;-68
2021/12/05 14:20:46;;;;;;;3.17;1.60;;;;;;;2.01;82.48;96524.31;6373236;27;20169;-69
2021/12/05 14:23:49;;;;;;;2.33;1.30;;;;;;;2.00;82.50;96527.84;6353927;27;20209;-68
2021/12/05 14:26:54;;;;;;;1.50;1.40;;;;;;;1.99;82.38;96534.03;6373633;27;20766;-71
2021/12/05 14:29:56;;;;;;;2.07;1.53;;;;;;;1.98;82.76;96532.34;6372757;27;20276;-68
2021/12/05 14:32:59;;;;;;;1.47;1.20;;;;;;;1.98;82.67;96539.31;6372710;27;20730;-69
2021/12/05 14:36:01;;;;;;;3.83;1.40;;;;;;;1.95;82.97;96547.31;6353881;27;20668;-69
2021/12/05 14:39:08;;;;;;;1.60;1.27;;;;;;;1.92;83.15;96539.69;6384735;27;20226;-68
2021/12/05 14:42:19;;;;;;;2.20;1.73;;;;;;;1.88;82.46;96543.44;6372460;27;20262;-69
2021/12/05 14:45:24;;;;;;;2.23;1.83;;;;;;;1.87;82.62;96540.00;6372897;27;20196;-68
2021/12/05 14:48:31;;;;;;;2.87;2.03;;;;;;;1.81;83.02;96545.56;6354759;27;20249;-69
2021/12/05 14:51:40;;;;;;;4.40;1.87;;;;;;;1.76;83.02;96555.44;6372476;27;20188;-69
2021/12/05 14:54:43;;;;;;;2.30;1.93;;;;;;;1.68;83.87;96557.72;6372540;27;20201;-69
2021/12/05 14:57:49;;;;;;;3.17;1.83;;;;;;;1.62;83.84;96547.66;6354002;27;20653;-68
2021/12/05 15:00:55;;;;;;;4.07;1.80;;;;;;;1.57;84.61;96550.56;6372713;27;20199;-69
2021/12/05 15:04:00;;;;;;;3.07;2.00;;;;;;;1.53;84.97;96553.44;6371732;27;20192;-69
2021/12/05 15:07:02;;;;;;;3.60;2.27;;;;;;;1.50;84.94;96562.28;6354941;27;20197;-69
2021/12/05 15:10:05;;;;;;;2.93;2.20;;;;;;;1.48;85.06;96553.75;6373235;27;20207;-69
2021/12/05 15:13:09;;;;;;;3.27;2.00;;;;;;;1.47;85.26;96558.13;6371885;27;20220;-69
2021/12/05 15:16:11;;;;;;;3.40;2.40;;;;;;;1.47;85.32;96571.13;6372687;27;20503;-69
2021/12/05 15:19:14;;;;;;;5.20;2.80;;;;;;;1.45;85.13;96567.78;6362718;27;20192;-69
2021/12/05 15:22:16;;;;;;;3.90;2.17;;;;;;;1.45;85.34;96570.38;6353312;27;20743;-68
2021/12/05 15:25:24;;;;;;;7.00;3.10;;;;;;;1.45;85.95;96566.94;6372133;27;20274;-68
2021/12/05 15:28:26;;;;;;;4.97;2.63;;;;;;;1.47;85.47;96568.50;6371588;27;20388;-68
2021/12/05 15:31:37;;;;;;;3.53;2.77;;;;;;;1.47;85.23;96560.72;6353126;27;20204;-68
2021/12/05 15:34:38;;;;;;;4.57;3.37;;;;;;;1.50;84.83;96567.47;6353429;27;20214;-69
2021/12/05 15:37:48;;;;;;;5.13;2.93;;;;;;;1.54;84.92;96565.53;6353218;27;20199;-69
2021/12/05 15:40:54;;;;;;;4.40;3.00;;;;;;;1.57;84.52;96573.16;6371415;27;20695;-67
2021/12/05 15:43:56;;;;;;;3.43;2.80;;;;;;;1.57;84.34;96573.97;6371442;27;20161;-68
2021/12/05 15:47:10;;;;;;;3.00;2.70;;;;;;;1.61;84.05;96580.63;6371431;27;20180;-69
2021/12/05 15:50:19;;;;;;;4.90;3.00;;;;;;;1.61;83.70;96585.84;6346264;28;20551;-69
2021/12/05 15:53:22;;;;;;;4.23;3.20;;;;;;;1.63;84.44;96583.97;6350478;27;20200;-68
2021/12/05 15:56:25;;;;;;;3.23;2.70;;;;;;;1.63;83.79;96585.75;6371326;27;20675;-68
2021/12/05 15:59:32;;;;;;;4.93;3.13;;;;;;;1.61;84.22;96585.84;6351828;27;20628;-68
2021/12/05 16:02:34;;;;;;;3.50;3.10;;;;;;;1.60;83.97;96591.97;6370971;27;20208;-73
2021/12/05 16:05:38;;;;;;;3.90;3.00;;;;;;;1.58;84.21;96585.22;6370889;27;20192;-69
2021/12/05 16:08:43;;;;;;;5.60;3.10;;;;;;;1.57;84.29;96583.53;6361673;27;20217;-68
2021/12/05 16:11:48;;;;;;;4.77;3.17;;;;;;;1.56;84.50;96587.06;6369985;27;20296;-69
2021/12/05 16:14:56;;;;;;;4.27;3.33;;;;;;;1.56;84.67;96593.09;6352617;27;20219;-69
2021/12/05 16:18:00;;;;;;;5.33;3.50;;;;;;;1.57;84.66;96599.97;6352258;27;20189;-70
2021/12/05 16:21:17;;;;;;;7.53;3.50;;;;;;;1.58;84.43;96613.81;6352121;27;20299;-69
2021/12/05 16:24:23;;;;;;;3.87;3.13;;;;;;;1.60;84.44;96619.75;6370602;27;20185;-68
2021/12/05 16:27:26;;;;;;;7.30;3.77;;;;;;;1.62;84.23;96636.06;6370425;27;20204;-70
2021/12/05 16:30:33;;;;;;;6.23;3.80;;;;;;;1.64;84.09;96639.44;6369788;27;20188;-69
2021/12/05 16:33:36;;;;;;;5.70;3.40;;;;;;;1.65;83.67;96636.75;6351333;27;20217;-69
2021/12/05 16:36:52;;;;;;;3.83;3.43;;;;;;;1.67;83.84;96639.25;6351987;27;20199;-69
2021/12/05 16:39:58;;;;;;;4.50;3.50;;;;;;;1.65;83.60;96647.13;6369317;27;20195;-68
2021/12/05 16:43:09;;;;;;;3.73;3.30;;;;;;;1.65;83.94;96649.75;6370062;27;20189;-69
2021/12/05 16:46:21;;;;;;;5.60;4.20;;;;;;;1.65;83.67;96646.31;6351678;27;20205;-69
2021/12/05 16:49:28;;;;;;;4.97;3.67;;;;;;;1.63;84.30;96649.00;6369239;27;20538;-69
2021/12/05 16:52:39;;;;;;;5.80;3.70;;;;;;;1.63;84.02;96645.56;6351369;27;20189;-68
2021/12/05 16:55:45;;;;;;;3.83;3.50;;;;;;;1.63;84.30;96662.00;6369624;27;20184;-68
2021/12/05 16:58:48;;;;;;;3.50;3.07;;;;;;;1.63;84.07;96666.34;6350788;27;20189;-68
2021/12/05 17:02:21;;;;;;;3.37;2.87;;;;;;;1.59;83.93;96673.53;6369190;27;20189;-68
2021/12/05 17:05:32;;;;;;;6.00;3.87;;;;;;;1.55;84.59;96661.63;6369459;27;20193;-69
2021/12/05 17:08:35;;;;;;;6.07;3.40;;;;;;;1.54;84.46;96664.31;6365782;27;20201;-68
2021/12/05 17:11:38;;;;;;;5.07;3.90;;;;;;;1.54;85.01;96670.34;6380948;27;20208;-69
2021/12/05 17:14:40;;;;;;;4.97;3.60;;;;;;;1.54;84.89;96672.13;6369299;27;20293;-69
2021/12/05 17:17:45;;;;;;;6.00;3.90;;;;;;;1.52;85.24;96673.97;6369205;27;20181;-68
2021/12/05 17:20:59;;;;;;;5.73;4.23;;;;;;;1.54;85.56;96670.34;6368801;27;20686;-70
2021/12/05 17:24:06;;;;;;;5.30;4.00;;;;;;;1.53;85.00;96665.25;6369298;27;20177;-69
2021/12/05 17:27:08;;;;;;;4.93;4.10;;;;;;;1.48;85.67;96666.38;6350548;27;20258;-69
2021/12/05 17:30:10;;;;;;;5.10;4.40;;;;;;;1.48;85.54;96661.19;6369258;27;20532;-69
2021/12/05 17:33:36;;;;;;;8.30;4.60;;;;;;;1.44;86.13;96661.44;6369132;27;20213;-69
2021/12/05 17:36:42;;;;;;;8.77;4.70;;;;;;;1.40;86.17;96658.19;6369581;27;20192;-68
2021/12/05 17:39:46;;;;;;;7.40;4.67;;;;;;;1.38;86.31;96659.22;6374040;27;20192;-68
2021/12/05 17:42:48;;;;;;;12.43;5.27;;;;;;;1.33;87.11;96659.47;6368850;28;20191;-69
2021/12/05 17:45:50;;;;;;;7.20;5.07;;;;;;;1.30;86.88;96651.06;6369076;28;20204;-69
2021/12/05 17:48:53;;;;;;;6.00;5.10;;;;;;;1.27;86.87;96641.66;6368945;28;20208;-69
2021/12/05 17:51:59;;;;;;;5.90;5.10;;;;;;;1.23;87.48;96640.16;6350469;28;20184;-68
2021/12/05 17:55:08;;;;;;;11.37;6.37;;;;;;;1.23;87.18;96644.53;6368823;28;20562;-73
2021/12/05 17:58:34;;;;;;;7.23;6.10;;;;;;;1.20;87.27;96642.94;6369226;28;20734;-68
2021/12/05 18:04:57;;;;;;;9.07;5.93;;;;;;;1.19;87.55;96650.84;6369130;28;20237;-69
2021/12/05 18:08:05;;;;;;;9.50;6.47;;;;;;;1.17;87.41;96645.75;6360504;27;20693;-68
2021/12/05 18:11:12;;;;;;;7.57;6.77;;;;;;;1.15;88.24;96647.59;6371290;27;20590;-68
2021/12/05 18:14:14;;;;;;;8.97;6.97;;;;;;;1.17;88.25;96647.50;6349971;28;20228;-70
2021/12/05 18:17:17;;;;;;;10.40;6.77;;;;;;;1.17;87.66;96658.75;6368368;28;20561;-70
2021/12/05 18:20:25;;;;;;;8.00;6.20;;;;;;;1.19;87.95;96663.84;6368312;28;20293;-68
2021/12/05 18:23:28;;;;;;;8.03;6.50;;;;;;;1.16;87.97;96667.47;6368163;28;20207;-68
2021/12/05 18:26:31;;;;;;;8.30;6.30;;;;;;;1.14;87.75;96665.88;6350179;28;20213;-68
2021/12/05 18:29:33;;;;;;;8.40;6.60;;;;;;;1.10;88.00;96660.84;6368491;28;20200;-71
2021/12/05 18:32:35;;;;;;;7.73;6.13;;;;;;;1.10;88.09;96657.41;6349690;28;20188;-70
2021/12/05 18:35:38;;;;;;;8.73;7.73;;;;;;;1.08;88.65;96657.53;6368329;28;20289;-69
2021/12/05 18:38:41;;;;;;;9.30;7.60;;;;;;;1.06;88.27;96661.97;6385040;27;20196;-68
2021/12/05 18:41:43;;;;;;;11.53;8.37;;;;;;;1.09;88.92;96671.34;6360065;27;20197;-68
2021/12/05 18:44:52;;;;;;;11.87;8.47;;;;;;;1.11;88.47;96670.31;6372869;27;20691;-69
2021/12/05 18:47:54;;;;;;;14.43;9.50;;;;;;;1.13;88.82;96664.19;6373330;27;20828;-71
2021/12/05 18:50:57;;;;;;;11.17;9.17;;;;;;;1.16;88.51;96667.47;6372130;27;20555;-68
2021/12/05 18:54:00;;;;;;;13.17;9.50;;;;;;;1.19;88.46;96676.84;6372362;27;20193;-68
2021/12/05 18:57:03;;;;;;;12.27;8.33;;;;;;;1.19;88.82;96679.44;6372765;27;20243;-69
2021/12/05 19:00:20;;;;;;;10.80;8.90;;;;;;;1.21;88.49;96672.38;6372255;27;20265;-70
2021/12/05 19:06:48;;;;;;;14.10;8.77;;;;;;;1.24;88.16;96677.38;6354255;27;20197;-69
2021/12/05 19:12:52;;;;;;;13.37;9.17;;;;;;;1.23;88.14;96676.56;6371654;27;20774;-68
2021/12/05 19:15:55;;;;;;;14.13;9.13;;;;;;;1.23;88.30;96666.16;6354010;27;20209;-70
2021/12/05 19:19:02;;;;;;;14.93;9.70;;;;;;;1.25;88.23;96671.28;6371771;27;20189;-68
2021/12/05 19:22:05;;;;;;;9.43;8.13;;;;;;;1.25;88.29;96661.72;6371628;27;20181;-68
2021/12/05 19:25:13;;;;;;;13.20;9.27;;;;;;;1.25;88.23;96666.06;6371941;27;20712;-69
2021/12/05 19:28:15;;;;;;;12.90;9.73;;;;;;;1.24;88.35;96659.19;6372137;27;20185;-69
2021/12/05 19:31:17;;;;;;;13.43;9.33;;;;;;;1.23;88.57;96666.16;6353265;27;20184;-68
2021/12/05 19:34:21;;;;;;;13.10;9.40;;;;;;;1.23;88.66;96679.16;6353054;27;20213;-69
2021/12/05 19:37:24;;;;;;;10.50;8.23;;;;;;;1.24;88.18;96677.38;6358437;27;20241;-68
2021/12/05 19:40:27;;;;;;;12.93;9.50;;;;;;;1.25;88.51;96684.25;6360427;27;20232;-68
2021/12/05 19:43:33;;;;;;;11.07;8.43;;;;;;;1.24;88.85;96691.22;6370880;27;20233;-69
2021/12/05 19:46:37;;;;;;;11.30;8.90;;;;;;;1.23;88.08;96689.53;6353236;27;20200;-69
2021/12/05 19:49:39;;;;;;;14.00;9.03;;;;;;;1.22;88.17;96689.63;6352277;27;20201;-69
2021/12/05 19:52:41;;;;;;;15.00;8.53;;;;;;;1.17;88.69;96692.53;6370556;27;20188;-72
2021/12/05 19:55:45;;;;;;;11.63;9.07;;;;;;;1.14;88.61;96690.09;6371221;27;20212;-68
2021/12/05 19:58:48;;;;;;;10.47;8.50;;;;;;;1.11;88.05;96705.84;6371282;27;20321;-68
2021/12/05 20:01:52;;;;;;;10.00;8.53;;;;;;;1.06;88.68;96707.91;6351858;27;20229;-68
2021/12/05 20:04:55;;;;;;;12.60;8.17;;;;;;;1.03;88.70;96705.47;6352192;27;20208;-70
2021/12/05 20:07:57;;;;;;;14.03;8.30;;;;;;;0.99;88.67;96710.03;6380521;27;20190;-68
2021/12/05 20:11:00;;;;;;;11.17;8.80;;;;;;;0.95;88.80;96703.31;6381993;27;20577;-72
2021/12/05 20:14:04;;;;;;;9.00;7.47;;;;;;;0.93;88.64;96704.31;6370310;27;20431;-68